createdAt,value
2023-02-02T00:00:26.471Z,5.80
2023-02-02T00:02:53.177Z,5.80
2023-02-02T00:05:19.933Z,5.80
2023-02-02T00:07:46.525Z,5.80
2023-02-02T00:10:13.102Z,5.70
2023-02-02T00:12:39.872Z,5.80
2023-02-02T00:15:07.022Z,5.80
2023-02-02T00:17:33.811Z,5.80
2023-02-02T00:20:00.536Z,5.80
2023-02-02T00:22:28.030Z,5.80
2023-02-02T00:24:54.783Z,5.80
2023-02-02T00:27:21.412Z,5.80
2023-02-02T00:29:48.151Z,5.90
2023-02-02T00:32:14.796Z,5.90
2023-02-02T00:34:41.586Z,6.00
2023-02-02T00:37:08.307Z,5.90
2023-02-02T00:39:35.078Z,5.90
2023-02-02T00:42:01.680Z,6.00
2023-02-02T00:44:47.088Z,6.00
2023-02-02T00:47:13.718Z,5.90
2023-02-02T00:49:40.368Z,6.00
2023-02-02T00:52:07.012Z,6.00
2023-02-02T00:54:33.563Z,6.00
2023-02-02T00:57:00.204Z,6.00
2023-02-02T00:59:26.817Z,6.00
2023-02-02T01:01:53.531Z,6.10
2023-02-02T01:04:20.277Z,6.10
2023-02-02T01:06:46.920Z,6.00
2023-02-02T01:09:13.523Z,6.00
2023-02-02T01:11:40.215Z,6.10
2023-02-02T01:14:07.128Z,6.00
2023-02-02T01:16:33.918Z,6.00
2023-02-02T01:19:00.887Z,5.90
2023-02-02T01:21:27.770Z,5.90
2023-02-02T01:23:54.394Z,5.80
2023-02-02T01:26:22.053Z,5.80
2023-02-02T01:28:48.917Z,5.80
2023-02-02T01:31:18.813Z,5.80
2023-02-02T01:33:47.372Z,5.80
2023-02-02T01:36:16.689Z,5.80
2023-02-02T01:38:44.115Z,5.80
2023-02-02T01:41:16.983Z,5.80
2023-02-02T01:43:43.927Z,5.80
2023-02-02T01:46:13.022Z,5.80
2023-02-02T01:48:43.403Z,5.80
2023-02-02T01:51:15.995Z,5.60
2023-02-02T01:53:45.211Z,5.60
2023-02-02T01:56:17.315Z,5.60
2023-02-02T01:58:45.243Z,5.60
2023-02-02T02:01:12.951Z,5.70
2023-02-02T02:03:39.590Z,5.70
2023-02-02T02:06:09.958Z,5.70
2023-02-02T02:09:00.265Z,5.70
2023-02-02T02:11:27.456Z,5.70
2023-02-02T02:14:15.263Z,5.70
2023-02-02T02:17:08.798Z,5.60
2023-02-02T02:20:27.592Z,5.60
2023-02-02T02:23:51.833Z,5.60
2023-02-02T02:26:46.489Z,5.60
2023-02-02T02:29:22.512Z,5.50
2023-02-02T02:32:13.952Z,5.50
2023-02-02T02:34:53.630Z,5.50
2023-02-02T02:37:47.893Z,5.50
2023-02-02T02:40:30.137Z,5.50
2023-02-02T02:43:01.320Z,5.50
2023-02-02T02:45:28.932Z,5.50
2023-02-02T02:47:55.743Z,5.60
2023-02-02T02:50:22.820Z,5.50
2023-02-02T02:52:56.560Z,5.60
2023-02-02T02:55:25.645Z,5.60
2023-02-02T02:58:05.058Z,5.60
2023-02-02T03:00:55.500Z,5.70
2023-02-02T03:03:34.527Z,5.70
2023-02-02T03:06:22.697Z,5.70
2023-02-02T03:08:58.427Z,5.70
2023-02-02T03:11:25.380Z,5.70
2023-02-02T03:13:52.628Z,5.10
2023-02-02T03:16:19.251Z,5.00
2023-02-02T03:18:46.183Z,4.80
2023-02-02T03:21:12.860Z,4.80
2023-02-02T03:23:39.611Z,4.90
2023-02-02T03:26:06.907Z,4.90
2023-02-02T03:28:34.227Z,5.00
2023-02-02T03:31:02.397Z,5.10
2023-02-02T03:33:31.661Z,5.10
2023-02-02T03:35:58.274Z,5.20
2023-02-02T03:38:24.967Z,5.20
2023-02-02T03:40:51.979Z,5.30
2023-02-02T03:43:27.591Z,5.30
2023-02-02T03:45:59.426Z,5.30
2023-02-02T03:48:26.896Z,5.30
2023-02-02T03:50:54.136Z,5.40
2023-02-02T03:53:21.385Z,5.40
2023-02-02T03:55:48.064Z,5.30
2023-02-02T03:58:15.004Z,5.30
2023-02-02T04:00:41.610Z,5.30
2023-02-02T04:03:08.406Z,5.30
2023-02-02T04:05:35.250Z,5.30
2023-02-02T04:08:02.017Z,5.30
2023-02-02T04:10:28.640Z,5.30
2023-02-02T04:12:55.368Z,5.30
2023-02-02T04:15:22.292Z,5.20
2023-02-02T04:17:49.171Z,5.20
2023-02-02T04:20:16.082Z,5.20
2023-02-02T04:22:42.842Z,5.30
2023-02-02T04:25:09.594Z,5.30
2023-02-02T04:27:36.232Z,5.20
2023-02-02T04:30:03.300Z,5.20
2023-02-02T04:32:30.029Z,5.20
2023-02-02T04:34:56.680Z,5.20
2023-02-02T04:37:23.357Z,5.20
2023-02-02T04:39:50.672Z,5.30
2023-02-02T04:42:17.474Z,5.30
2023-02-02T04:44:45.748Z,5.20
2023-02-02T04:47:12.406Z,5.30
2023-02-02T04:49:39.423Z,5.30
2023-02-02T04:52:06.112Z,5.40
2023-02-02T04:54:33.353Z,5.40
2023-02-02T04:56:59.984Z,5.40
2023-02-02T04:59:28.968Z,5.40
2023-02-02T05:02:02.369Z,5.40
2023-02-02T05:04:29.066Z,5.40
2023-02-02T05:06:55.935Z,5.30
2023-02-02T05:09:22.916Z,5.30
2023-02-02T05:11:49.526Z,5.30
2023-02-02T05:14:18.529Z,5.20
2023-02-02T05:16:45.634Z,5.10
2023-02-02T05:19:12.780Z,5.10
2023-02-02T05:21:39.457Z,5.20
2023-02-02T05:24:06.530Z,5.20
2023-02-02T05:26:33.387Z,5.30
2023-02-02T05:29:00.065Z,5.20
2023-02-02T05:31:26.861Z,5.20
2023-02-02T05:33:53.451Z,5.30
2023-02-02T05:36:20.222Z,5.30
2023-02-02T05:38:46.835Z,5.30
2023-02-02T05:41:13.491Z,5.30
2023-02-02T05:43:40.138Z,5.30
2023-02-02T05:46:06.857Z,5.40
2023-02-02T05:48:33.490Z,5.40
2023-02-02T05:51:06.583Z,5.50
2023-02-02T05:53:33.897Z,5.40
2023-02-02T05:56:00.775Z,5.50
2023-02-02T05:58:28.270Z,5.50
2023-02-02T06:00:56.717Z,5.50
2023-02-02T06:03:23.800Z,5.50
2023-02-02T06:05:50.699Z,5.50
2023-02-02T06:08:17.333Z,5.50
2023-02-02T06:10:44.220Z,5.50
2023-02-02T06:13:10.990Z,5.40
2023-02-02T06:15:38.239Z,5.40
2023-02-02T06:18:06.832Z,5.50
2023-02-02T06:20:33.660Z,5.50
2023-02-02T06:23:02.768Z,5.50
2023-02-02T06:25:29.523Z,5.50
2023-02-02T06:28:00.232Z,5.50
2023-02-02T06:30:28.055Z,5.50
2023-02-02T06:32:54.809Z,5.60
2023-02-02T06:35:21.896Z,5.60
2023-02-02T06:37:49.099Z,5.60
2023-02-02T06:40:16.015Z,5.60
2023-02-02T06:42:42.632Z,5.60
2023-02-02T06:45:10.028Z,5.60
2023-02-02T06:47:36.674Z,5.60
2023-02-02T06:50:04.109Z,5.60
2023-02-02T06:52:30.837Z,5.50
2023-02-02T06:54:59.125Z,5.40
2023-02-02T06:57:25.800Z,5.40
2023-02-02T06:59:53.107Z,5.40
2023-02-02T07:02:20.229Z,5.40
2023-02-02T07:04:46.923Z,5.40
2023-02-02T07:07:13.535Z,5.50
2023-02-02T07:09:40.284Z,5.40
2023-02-02T07:12:07.107Z,5.40
2023-02-02T07:14:33.874Z,5.40
2023-02-02T07:17:01.555Z,5.30
2023-02-02T07:19:28.325Z,5.40
2023-02-02T07:21:55.156Z,5.30
2023-02-02T07:24:21.906Z,5.30
2023-02-02T07:26:48.676Z,5.30
2023-02-02T07:29:15.288Z,5.30
2023-02-02T07:31:42.544Z,5.30
2023-02-02T07:34:09.372Z,5.30
2023-02-02T07:36:36.683Z,5.30
2023-02-02T07:39:05.133Z,5.30
2023-02-02T07:41:33.602Z,5.30
2023-02-02T07:44:00.240Z,5.40
2023-02-02T07:46:27.271Z,5.40
2023-02-02T07:48:55.657Z,5.40
2023-02-02T07:51:23.332Z,5.40
2023-02-02T07:53:52.227Z,5.30
2023-02-02T07:56:24.715Z,5.30
2023-02-02T07:58:56.587Z,5.30
2023-02-02T08:01:26.087Z,5.30
2023-02-02T08:03:54.388Z,5.30
2023-02-02T08:06:36.031Z,5.30
2023-02-02T08:09:05.236Z,5.30
2023-02-02T08:11:31.906Z,5.40
2023-02-02T08:14:00.738Z,5.40
2023-02-02T08:16:29.277Z,5.40
2023-02-02T08:18:56.682Z,5.50
2023-02-02T08:21:23.706Z,5.40
2023-02-02T08:23:52.468Z,5.40
2023-02-02T08:26:24.744Z,5.50
2023-02-02T08:28:57.747Z,5.50
2023-02-02T08:31:28.336Z,5.50
2023-02-02T08:33:55.556Z,5.60
2023-02-02T08:36:23.632Z,5.60
2023-02-02T08:38:51.213Z,5.60
2023-02-02T08:41:20.434Z,5.70
2023-02-02T08:43:47.291Z,5.80
2023-02-02T08:46:16.919Z,5.80
2023-02-02T08:48:44.144Z,5.90
2023-02-02T08:51:14.373Z,5.90
2023-02-02T08:53:44.985Z,6.10
2023-02-02T08:56:14.467Z,6.10
2023-02-02T08:58:45.757Z,6.20
2023-02-02T09:01:24.899Z,6.20
2023-02-02T09:03:58.057Z,6.00
2023-02-02T09:06:30.727Z,5.90
2023-02-02T09:08:57.486Z,5.90
2023-02-02T09:11:24.472Z,5.90
2023-02-02T09:13:55.735Z,6.00
2023-02-02T09:16:23.705Z,6.00
2023-02-02T09:18:50.963Z,6.10
2023-02-02T09:21:19.022Z,6.10
2023-02-02T09:23:47.972Z,6.20
2023-02-02T09:26:23.432Z,6.20
2023-02-02T09:29:02.956Z,6.30
2023-02-02T09:31:33.083Z,6.30
2023-02-02T09:34:05.805Z,6.30
2023-02-02T09:36:33.525Z,6.40
2023-02-02T09:39:00.322Z,6.50
2023-02-02T09:41:40.657Z,6.60
2023-02-02T09:44:25.627Z,6.60
2023-02-02T09:47:31.386Z,6.60
2023-02-02T09:50:30.941Z,6.60
2023-02-02T09:53:15.611Z,6.60
2023-02-02T09:55:47.523Z,6.70
2023-02-02T09:58:19.999Z,6.50
2023-02-02T10:01:14.859Z,6.60
2023-02-02T10:04:08.412Z,6.60
2023-02-02T10:06:43.450Z,6.70
2023-02-02T10:09:26.143Z,6.80
2023-02-02T10:11:58.720Z,6.70
2023-02-02T10:14:44.782Z,6.80
2023-02-02T10:17:42.290Z,6.80
2023-02-02T10:20:26.548Z,6.90
2023-02-02T10:22:56.049Z,7.00
2023-02-02T10:25:26.506Z,7.00
2023-02-02T10:28:06.664Z,7.10
2023-02-02T10:31:00.731Z,7.20
2023-02-02T10:33:39.745Z,7.20
2023-02-02T10:36:27.946Z,7.30
2023-02-02T10:39:20.155Z,7.30
2023-02-02T10:42:25.149Z,7.10
2023-02-02T10:45:08.664Z,7.20
2023-02-02T10:47:36.405Z,7.30
2023-02-02T10:50:19.197Z,7.10
2023-02-02T10:52:54.817Z,7.20
2023-02-02T10:55:42.602Z,7.20
2023-02-02T10:58:12.081Z,7.40
2023-02-02T11:00:50.804Z,7.20
2023-02-02T11:03:20.733Z,7.40
2023-02-02T11:06:06.113Z,7.40
2023-02-02T11:08:36.681Z,7.60
2023-02-02T11:11:17.263Z,7.50
2023-02-02T11:13:50.129Z,7.60
2023-02-02T11:16:16.782Z,7.40
2023-02-02T11:18:44.511Z,7.20
2023-02-02T11:21:22.557Z,7.40
2023-02-02T11:24:14.177Z,7.40
2023-02-02T11:26:51.332Z,7.60
2023-02-02T11:29:30.895Z,7.80
2023-02-02T11:31:58.332Z,7.90
2023-02-02T11:34:27.586Z,7.80
2023-02-02T11:37:13.464Z,7.70
2023-02-02T11:39:44.298Z,7.70
2023-02-02T11:42:16.330Z,7.60
2023-02-02T11:44:55.915Z,7.50
2023-02-02T11:47:27.868Z,7.50
2023-02-02T11:49:57.479Z,7.50
2023-02-02T11:52:31.350Z,7.50
2023-02-02T11:55:02.699Z,7.50
2023-02-02T11:57:30.581Z,7.60
2023-02-02T12:00:18.012Z,7.60
2023-02-02T12:02:49.323Z,7.90
2023-02-02T12:05:23.553Z,8.00
2023-02-02T12:07:50.379Z,8.00
2023-02-02T12:10:23.121Z,8.10
2023-02-02T12:13:14.829Z,8.00
2023-02-02T12:16:03.267Z,8.10
2023-02-02T12:18:49.454Z,8.00
2023-02-02T12:21:40.873Z,7.70
2023-02-02T12:24:25.851Z,7.70
2023-02-02T12:27:13.856Z,7.80
2023-02-02T12:29:59.103Z,7.90
2023-02-02T12:33:00.418Z,7.80
2023-02-02T12:35:54.531Z,7.80
2023-02-02T12:38:30.508Z,7.70
2023-02-02T12:41:35.135Z,7.80
2023-02-02T12:44:13.847Z,7.80
2023-02-02T12:47:03.787Z,7.90
2023-02-02T12:49:33.374Z,7.90
2023-02-02T12:52:18.537Z,7.90
2023-02-02T12:55:07.322Z,7.80
2023-02-02T12:58:11.727Z,7.80
2023-02-02T13:00:57.136Z,8.00
2023-02-02T13:03:29.875Z,8.10
2023-02-02T13:06:23.789Z,8.30
2023-02-02T13:09:00.843Z,8.30
2023-02-02T13:11:44.713Z,8.40
2023-02-02T13:14:29.290Z,8.40
2023-02-02T13:17:23.312Z,8.40
2023-02-02T13:19:53.893Z,8.40
2023-02-02T13:22:26.989Z,8.40
2023-02-02T13:25:00.036Z,8.40
2023-02-02T13:27:29.108Z,8.30
2023-02-02T13:30:13.528Z,8.30
2023-02-02T13:32:45.148Z,8.40
2023-02-02T13:35:25.791Z,8.40
2023-02-02T13:38:28.982Z,8.30
2023-02-02T13:40:59.083Z,8.30
2023-02-02T13:43:29.181Z,8.20
2023-02-02T13:46:17.618Z,8.10
2023-02-02T13:48:53.136Z,8.10
2023-02-02T13:51:38.593Z,8.30
2023-02-02T13:54:37.071Z,8.30
2023-02-02T13:57:41.318Z,8.30
2023-02-02T14:00:20.501Z,8.20
2023-02-02T14:02:51.997Z,8.30
2023-02-02T14:05:29.223Z,8.20
2023-02-02T14:08:18.485Z,8.00
2023-02-02T14:10:54.424Z,7.90
2023-02-02T14:13:54.276Z,7.90
2023-02-02T14:16:42.901Z,7.90
2023-02-02T14:19:35.322Z,7.90
2023-02-02T14:22:11.908Z,7.80
2023-02-02T14:24:44.040Z,7.90
2023-02-02T14:27:10.714Z,7.90
2023-02-02T14:29:58.950Z,7.90
2023-02-02T14:32:27.691Z,7.90
2023-02-02T14:34:56.573Z,7.90
2023-02-02T14:37:29.787Z,8.00
2023-02-02T14:40:01.861Z,8.00
2023-02-02T14:42:56.265Z,8.00
2023-02-02T14:45:30.529Z,8.00
2023-02-02T14:48:11.718Z,8.00
2023-02-02T14:50:38.309Z,8.10
2023-02-02T14:53:19.070Z,8.10
2023-02-02T14:56:09.341Z,8.20
2023-02-02T14:59:00.214Z,8.20
2023-02-02T15:01:31.283Z,8.10
2023-02-02T15:04:01.104Z,8.10
2023-02-02T15:06:30.666Z,8.00
2023-02-02T15:09:23.232Z,8.00
2023-02-02T15:12:02.155Z,7.80
2023-02-02T15:14:43.161Z,7.60
2023-02-02T15:17:30.769Z,7.50
2023-02-02T15:20:20.958Z,7.50
2023-02-02T15:22:47.644Z,7.50
2023-02-02T15:25:52.207Z,7.40
2023-02-02T15:28:41.343Z,7.30
2023-02-02T15:31:29.720Z,7.20
2023-02-02T15:34:01.233Z,7.20
2023-02-02T15:36:32.211Z,7.30
2023-02-02T15:39:03.016Z,7.30
2023-02-02T15:41:36.482Z,7.20
2023-02-02T15:44:19.195Z,7.20
2023-02-02T15:46:46.867Z,7.20
2023-02-02T15:49:34.271Z,7.20
2023-02-02T15:52:13.571Z,7.20
2023-02-02T15:54:53.430Z,7.20
2023-02-02T15:57:28.704Z,7.20
2023-02-02T15:59:57.451Z,7.20
2023-02-02T16:02:41.632Z,7.30
2023-02-02T16:05:36.345Z,7.20
2023-02-02T16:08:07.002Z,7.20
2023-02-02T16:10:35.183Z,7.10
2023-02-02T16:13:02.650Z,7.00
2023-02-02T16:15:33.763Z,7.00
2023-02-02T16:18:08.086Z,7.00
2023-02-02T16:20:36.567Z,7.00
2023-02-02T16:23:06.113Z,7.10
2023-02-02T16:25:36.986Z,7.00
2023-02-02T16:28:04.474Z,6.90
2023-02-02T16:30:35.531Z,6.90
2023-02-02T16:33:36.373Z,6.90
2023-02-02T16:36:26.152Z,7.00
2023-02-02T16:38:54.080Z,7.00
2023-02-02T16:41:36.646Z,7.00
2023-02-02T16:44:30.119Z,7.00
2023-02-02T16:46:59.660Z,6.90
2023-02-02T16:49:27.213Z,6.90
2023-02-02T16:52:11.441Z,7.00
2023-02-02T16:54:42.476Z,7.00
2023-02-02T16:57:17.726Z,7.00
2023-02-02T16:59:49.689Z,7.10
2023-02-02T17:02:35.740Z,7.20
2023-02-02T17:05:16.813Z,7.30
2023-02-02T17:07:53.580Z,7.40
2023-02-02T17:10:28.394Z,7.40
2023-02-02T17:12:54.965Z,7.50
2023-02-02T17:15:36.339Z,7.40
2023-02-02T17:18:05.144Z,7.40
2023-02-02T17:20:34.643Z,7.40
2023-02-02T17:23:10.273Z,7.30
2023-02-02T17:25:41.357Z,7.40
2023-02-02T17:28:11.995Z,7.30
2023-02-02T17:30:47.940Z,7.30
2023-02-02T17:33:18.529Z,7.30
2023-02-02T17:35:55.682Z,7.30
2023-02-02T17:38:23.963Z,7.30
2023-02-02T17:40:51.360Z,7.30
2023-02-02T17:43:17.990Z,7.40
2023-02-02T17:45:44.903Z,7.40
2023-02-02T17:48:13.670Z,7.30
2023-02-02T17:50:41.687Z,7.30
2023-02-02T17:53:13.537Z,7.20
2023-02-02T17:55:43.441Z,7.20
2023-02-02T17:58:13.275Z,7.20
2023-02-02T18:00:40.857Z,7.20
2023-02-02T18:03:12.444Z,7.20
2023-02-02T18:05:41.272Z,7.20
2023-02-02T18:08:13.632Z,7.20
2023-02-02T18:10:41.435Z,7.10
2023-02-02T18:13:09.853Z,7.20
2023-02-02T18:15:36.617Z,7.20
2023-02-02T18:18:03.481Z,7.20
2023-02-02T18:20:30.036Z,7.10
2023-02-02T18:22:56.868Z,7.10
2023-02-02T18:25:25.733Z,7.10
2023-02-02T18:27:53.883Z,7.10
2023-02-02T18:30:22.024Z,7.10
2023-02-02T18:32:49.793Z,7.10
2023-02-02T18:35:16.387Z,7.10
2023-02-02T18:37:43.036Z,7.10
2023-02-02T18:40:10.238Z,7.10
2023-02-02T18:42:36.981Z,7.10
2023-02-02T18:45:05.116Z,7.10
2023-02-02T18:47:31.935Z,7.10
2023-02-02T18:49:58.793Z,7.10
2023-02-02T18:52:25.677Z,7.10
2023-02-02T18:54:52.319Z,7.10
2023-02-02T18:57:19.156Z,7.00
2023-02-02T18:59:45.842Z,7.10
2023-02-02T19:02:17.545Z,7.00
2023-02-02T19:05:04.961Z,7.10
2023-02-02T19:07:51.255Z,7.00
2023-02-02T19:10:18.906Z,6.90
2023-02-02T19:13:18.241Z,6.90
2023-02-02T19:15:54.356Z,6.90
2023-02-02T19:18:23.615Z,6.90
2023-02-02T19:20:52.362Z,6.90
2023-02-02T19:23:23.422Z,6.90
2023-02-02T19:25:54.230Z,6.80
2023-02-02T19:28:30.941Z,6.80
2023-02-02T19:31:00.108Z,6.80
2023-02-02T19:36:23.629Z,6.90
2023-02-02T19:38:55.743Z,6.90
2023-02-02T19:41:24.624Z,6.90
2023-02-02T19:44:10.220Z,6.90
2023-02-02T19:46:43.295Z,6.90
2023-02-02T19:49:36.056Z,6.90
2023-02-02T19:52:04.217Z,6.80
2023-02-02T19:54:43.741Z,6.80
2023-02-02T19:57:36.515Z,6.70
2023-02-02T20:00:18.955Z,6.70
2023-02-02T20:02:56.072Z,6.70
2023-02-02T20:05:33.734Z,6.70
2023-02-02T20:08:37.093Z,6.80
2023-02-02T20:11:25.686Z,6.80
2023-02-02T20:13:52.496Z,6.80
2023-02-02T20:16:21.820Z,6.70
2023-02-02T20:18:55.346Z,6.60
2023-02-02T20:21:34.381Z,6.60
2023-02-02T20:24:01.570Z,6.60
2023-02-02T20:26:35.787Z,6.60
2023-02-02T20:29:19.117Z,6.60
2023-02-02T20:31:47.316Z,6.60
2023-02-02T20:34:30.365Z,6.60
2023-02-02T20:37:05.583Z,6.60
2023-02-02T20:39:36.356Z,6.50
2023-02-02T20:42:03.686Z,6.60
2023-02-02T20:44:33.522Z,6.40
2023-02-02T20:47:01.937Z,6.50
2023-02-02T20:49:31.914Z,6.50
2023-02-02T20:52:02.164Z,6.50
2023-02-02T20:54:30.570Z,6.50
2023-02-02T20:56:59.155Z,6.50
2023-02-02T20:59:25.937Z,6.40
2023-02-02T21:01:53.762Z,6.40
2023-02-02T21:04:21.509Z,6.40
2023-02-02T21:06:49.294Z,6.40
2023-02-02T21:09:17.014Z,6.40
2023-02-02T21:11:44.385Z,6.40
2023-02-02T21:14:11.348Z,6.30
2023-02-02T21:16:38.094Z,6.20
2023-02-02T21:19:05.052Z,6.30
2023-02-02T21:21:31.663Z,6.20
2023-02-02T21:23:58.365Z,6.20
2023-02-02T21:26:30.630Z,6.20
2023-02-02T21:28:58.475Z,6.20
2023-02-02T21:31:25.872Z,6.20
2023-02-02T21:33:53.116Z,6.20
2023-02-02T21:36:36.332Z,6.10
2023-02-02T21:39:28.579Z,6.10
2023-02-02T21:45:20.307Z,6.00
2023-02-02T21:47:54.604Z,6.10
2023-02-02T21:50:44.842Z,6.10
2023-02-02T21:53:18.936Z,6.10
2023-02-02T21:55:50.453Z,6.00
2023-02-02T21:58:22.225Z,6.00
2023-02-02T22:00:53.612Z,6.00
2023-02-02T22:03:36.851Z,5.90
2023-02-02T22:06:33.505Z,5.90
2023-02-02T22:09:22.131Z,5.90
2023-02-02T22:12:02.327Z,5.90
2023-02-02T22:14:40.732Z,5.90
2023-02-02T22:17:24.110Z,5.90
2023-02-02T22:19:59.032Z,5.80
2023-02-02T22:22:29.413Z,5.80
2023-02-02T22:25:03.479Z,5.80
2023-02-02T22:27:42.273Z,5.90
2023-02-02T22:30:27.502Z,5.80
2023-02-02T22:32:55.420Z,5.90
2023-02-02T22:35:22.067Z,5.90
2023-02-02T22:37:48.885Z,5.90
2023-02-02T22:40:16.358Z,5.90
2023-02-02T22:42:43.397Z,6.00
2023-02-02T22:45:10.227Z,6.00
2023-02-02T22:47:36.955Z,6.00
2023-02-02T22:50:03.679Z,6.00
2023-02-02T22:52:30.276Z,6.00
2023-02-02T22:54:56.888Z,6.00
2023-02-02T22:57:23.629Z,5.90
2023-02-02T22:59:50.174Z,6.00
2023-02-02T23:02:16.962Z,6.00
2023-02-02T23:04:43.703Z,6.00
2023-02-02T23:07:10.374Z,6.00
2023-02-02T23:09:37.003Z,6.00
2023-02-02T23:12:03.731Z,5.90
2023-02-02T23:14:30.381Z,6.00
2023-02-02T23:16:56.949Z,6.10
2023-02-02T23:19:23.494Z,6.00
2023-02-02T23:21:50.162Z,6.10
2023-02-02T23:24:16.742Z,6.00
2023-02-02T23:26:43.335Z,6.10
2023-02-02T23:29:09.930Z,6.10
2023-02-02T23:31:36.643Z,6.10
2023-02-02T23:34:03.388Z,6.10
2023-02-02T23:36:29.985Z,6.10
2023-02-02T23:38:56.561Z,6.10
2023-02-02T23:41:23.166Z,6.10
2023-02-02T23:43:50.477Z,6.20
2023-02-02T23:46:18.030Z,6.10
2023-02-02T23:48:45.229Z,6.20
2023-02-02T23:51:12.965Z,6.20
2023-02-02T23:53:40.742Z,6.20
2023-02-02T23:56:07.596Z,6.20
2023-02-02T23:58:34.178Z,6.20
